Time;durP1;ratioP1;P1;durP2;ratioP2;P2;SDS_P1;SDS_P2;PMS_P1;PMS_P2;Temp;Humidity;BMP_temperature;BMP_pressure;BME280_temperature;BME280_humidity;BME280_pressure;Samples;Min_cycle;Max_cycle;Signal;HPM_P1;HPM_P2
2023/05/19 00:01:23;;;;;;;10.13;3.15;;;11.50;99.90;;;;;;4973173;28;20037;-77
2023/05/19 00:04:01;;;;;;;6.47;3.40;;;11.50;99.90;;;;;;4971751;28;20034;-77
2023/05/19 00:06:32;;;;;;;4.55;2.60;;;11.50;99.90;;;;;;4971829;28;20058;-77
2023/05/19 00:09:06;;;;;;;4.40;2.58;;;11.50;99.90;;;;;;4971756;28;20035;-77
2023/05/19 00:11:34;;;;;;;8.82;3.72;;;11.60;99.90;;;;;;4987751;28;20125;-77
2023/05/19 00:14:01;;;;;;;9.98;3.05;;;11.50;99.90;;;;;;4971852;28;20630;-76
2023/05/19 00:16:29;;;;;;;5.78;3.10;;;11.50;99.90;;;;;;4972916;28;20058;-77
2023/05/19 00:18:56;;;;;;;6.18;2.42;;;11.50;99.90;;;;;;4971654;28;20089;-77
2023/05/19 00:21:22;;;;;;;6.28;2.67;;;11.50;99.90;;;;;;4973013;28;20026;-76
2023/05/19 00:23:48;;;;;;;5.90;2.08;;;11.50;99.90;;;;;;4971755;28;20027;-77
2023/05/19 00:26:15;;;;;;;5.53;3.08;;;11.50;99.90;;;;;;4972881;28;20081;-77
2023/05/19 00:28:40;;;;;;;6.20;3.13;;;11.50;99.90;;;;;;4971650;28;20034;-77
2023/05/19 00:31:06;;;;;;;4.25;2.70;;;11.60;99.90;;;;;;4972972;28;20027;-77
2023/05/19 00:33:32;;;;;;;8.85;3.53;;;11.60;99.90;;;;;;4974773;28;20034;-76
2023/05/19 00:36:01;;;;;;;10.98;4.53;;;11.60;99.90;;;;;;4991536;28;20030;-77
2023/05/19 00:38:28;;;;;;;6.70;3.03;;;11.50;99.90;;;;;;4976536;28;20552;-77
2023/05/19 00:40:53;;;;;;;5.70;2.80;;;11.60;99.90;;;;;;4977048;28;20023;-77
2023/05/19 00:43:19;;;;;;;6.65;2.60;;;11.60;99.90;;;;;;4976605;28;20109;-76
2023/05/19 00:45:45;;;;;;;6.97;3.00;;;11.60;99.90;;;;;;4976412;28;20079;-77
2023/05/19 00:48:11;;;;;;;2.83;2.47;;;11.50;99.90;;;;;;4976347;28;20027;-76
2023/05/19 00:50:37;;;;;;;3.60;2.50;;;11.60;99.90;;;;;;4975482;28;20023;-77
2023/05/19 00:53:02;;;;;;;5.72;3.15;;;11.60;99.90;;;;;;4976481;28;20117;-77
2023/05/19 00:55:30;;;;;;;5.38;2.83;;;11.60;99.90;;;;;;4976237;28;20030;-77
2023/05/19 00:57:56;;;;;;;7.18;3.08;;;11.50;99.90;;;;;;4976273;28;20038;-77
2023/05/19 01:00:22;;;;;;;6.22;3.47;;;11.50;99.90;;;;;;4976318;28;20050;-77
2023/05/19 01:02:51;;;;;;;7.00;3.17;;;11.60;99.90;;;;;;4976248;28;20039;-76
2023/05/19 01:05:16;;;;;;;9.55;3.45;;;11.60;99.90;;;;;;4976019;28;20082;-77
2023/05/19 01:07:42;;;;;;;8.45;3.28;;;11.50;99.90;;;;;;4976054;28;20034;-77
2023/05/19 01:10:08;;;;;;;5.28;3.45;;;11.40;99.90;;;;;;4976246;28;20033;-76
2023/05/19 01:12:35;;;;;;;3.45;2.60;;;11.50;99.90;;;;;;4974321;28;20050;-77
2023/05/19 01:15:02;;;;;;;4.07;3.00;;;11.50;99.90;;;;;;4975704;28;20023;-76
2023/05/19 01:17:36;;;;;;;6.82;3.50;;;11.50;99.90;;;;;;4974637;28;20034;-76
2023/05/19 01:20:18;;;;;;;6.85;3.10;;;11.40;99.90;;;;;;4974805;28;20022;-77
2023/05/19 01:23:16;;;;;;;6.93;3.50;;;11.40;99.90;;;;;;4975842;28;20015;-77
2023/05/19 01:25:48;;;;;;;5.70;3.22;;;11.40;99.90;;;;;;4975764;28;20042;-76
2023/05/19 01:28:32;;;;;;;4.38;3.17;;;11.40;99.90;;;;;;4975663;28;20113;-77
2023/05/19 01:31:00;;;;;;;5.93;3.25;;;11.40;99.90;;;;;;4974488;28;20027;-77
2023/05/19 01:33:28;;;;;;;7.07;3.35;;;11.40;99.90;;;;;;4975717;28;20034;-77
2023/05/19 01:35:56;;;;;;;4.20;2.88;;;11.40;99.90;;;;;;4990534;28;20030;-77
2023/05/19 01:38:23;;;;;;;6.93;3.42;;;11.40;99.90;;;;;;4975626;28;20027;-77
2023/05/19 01:40:52;;;;;;;6.05;2.90;;;11.40;99.90;;;;;;4974350;28;20029;-76
2023/05/19 01:43:21;;;;;;;10.27;3.13;;;11.40;99.90;;;;;;4975189;28;20078;-77
2023/05/19 01:45:47;;;;;;;7.93;2.67;;;11.40;99.90;;;;;;4975038;28;20061;-77
2023/05/19 01:48:14;;;;;;;4.55;3.25;;;11.40;99.90;;;;;;4975085;28;20480;-77
2023/05/19 01:50:40;;;;;;;4.18;2.85;;;11.40;99.90;;;;;;4974934;28;20081;-77
2023/05/19 01:53:06;;;;;;;6.55;3.22;;;11.40;99.90;;;;;;4975774;28;20110;-78
2023/05/19 01:55:41;;;;;;;4.32;2.63;;;11.40;99.90;;;;;;4975585;28;20074;-77
2023/05/19 01:58:26;;;;;;;4.72;3.00;;;11.40;99.90;;;;;;4973992;28;20034;-77
2023/05/19 02:01:06;;;;;;;6.05;3.20;;;11.50;99.90;;;;;;4974104;28;20114;-77
2023/05/19 02:03:50;;;;;;;9.05;3.33;;;11.40;99.90;;;;;;4975318;28;20019;-77
2023/05/19 02:06:18;;;;;;;8.23;3.28;;;11.40;99.90;;;;;;4973893;28;20031;-77
2023/05/19 02:09:01;;;;;;;8.45;3.20;;;11.40;99.90;;;;;;4973706;28;20105;-76
2023/05/19 02:11:53;;;;;;;6.25;3.45;;;11.40;99.90;;;;;;4974951;28;20035;-76
2023/05/19 02:14:49;;;;;;;6.90;3.30;;;11.50;99.90;;;;;;4973664;28;20034;-76
2023/05/19 02:17:18;;;;;;;3.90;3.00;;;11.40;99.90;;;;;;4974868;28;20019;-77
2023/05/19 02:19:43;;;;;;;7.78;3.50;;;11.40;99.90;;;;;;4973793;28;20033;-77
2023/05/19 02:22:09;;;;;;;7.65;3.33;;;11.40;99.90;;;;;;4974915;28;20395;-77
2023/05/19 02:24:36;;;;;;;6.07;3.00;;;11.40;99.90;;;;;;4973270;28;20384;-77
2023/05/19 02:27:02;;;;;;;6.93;2.95;;;11.30;99.90;;;;;;4974813;28;20468;-77
2023/05/19 02:29:28;;;;;;;3.90;3.30;;;11.40;99.90;;;;;;4973356;28;20102;-77
2023/05/19 02:31:53;;;;;;;6.30;3.28;;;11.30;99.90;;;;;;4973394;28;20030;-77
2023/05/19 02:34:19;;;;;;;9.43;3.08;;;11.30;99.90;;;;;;4973343;28;20023;-77
2023/05/19 02:36:48;;;;;;;8.55;3.30;;;11.30;99.90;;;;;;4989427;28;20042;-76
2023/05/19 02:39:14;;;;;;;4.75;2.90;;;11.20;99.90;;;;;;4974504;28;20105;-76
2023/05/19 02:41:40;;;;;;;7.22;3.75;;;11.20;99.90;;;;;;4973379;28;20058;-76
2023/05/19 02:44:06;;;;;;;5.28;2.95;;;11.20;99.90;;;;;;4974314;28;20026;-77
2023/05/19 02:46:32;;;;;;;8.70;2.95;;;11.20;99.90;;;;;;4974246;28;20480;-77
2023/05/19 02:48:58;;;;;;;4.45;3.22;;;11.10;99.90;;;;;;4974260;28;20034;-77
2023/05/19 02:51:24;;;;;;;4.45;3.30;;;11.10;99.90;;;;;;4989042;28;20113;-77
2023/05/19 02:53:50;;;;;;;8.13;3.90;;;11.00;99.90;;;;;;4989107;28;20443;-77
2023/05/19 02:56:15;;;;;;;9.80;4.85;;;11.00;99.90;;;;;;4973355;28;20071;-77
2023/05/19 02:58:42;;;;;;;5.38;3.47;;;11.00;99.90;;;;;;4971708;28;20023;-77
2023/05/19 03:01:08;;;;;;;4.90;3.35;;;10.90;99.90;;;;;;4972726;28;20039;-77
2023/05/19 03:03:34;;;;;;;3.78;3.33;;;10.90;99.90;;;;;;4973997;28;20030;-77
2023/05/19 03:06:00;;;;;;;9.07;4.28;;;10.80;99.90;;;;;;4973890;28;20027;-77
2023/05/19 03:08:26;;;;;;;7.82;2.97;;;10.70;99.90;;;;;;4973946;28;20037;-77
2023/05/19 03:10:52;;;;;;;5.43;3.22;;;10.70;99.90;;;;;;4973587;28;20140;-77
2023/05/19 03:13:18;;;;;;;7.55;3.70;;;10.70;99.90;;;;;;4973840;28;20059;-77
2023/05/19 03:15:43;;;;;;;4.55;2.90;;;10.70;99.90;;;;;;4972493;28;20058;-77
2023/05/19 03:18:11;;;;;;;7.07;3.30;;;10.70;99.90;;;;;;4972546;28;20480;-77
2023/05/19 03:20:37;;;;;;;5.43;3.92;;;10.70;99.90;;;;;;4973629;28;20066;-77
2023/05/19 03:23:02;;;;;;;7.63;3.35;;;10.80;99.90;;;;;;4973743;28;20500;-77
2023/05/19 03:25:28;;;;;;;4.80;3.28;;;10.80;99.90;;;;;;4973390;28;20420;-77
2023/05/19 03:27:54;;;;;;;6.60;3.95;;;10.80;99.90;;;;;;4973524;28;20038;-76
2023/05/19 03:30:20;;;;;;;6.75;3.65;;;10.80;99.90;;;;;;4972262;28;20034;-77
2023/05/19 03:32:46;;;;;;;8.27;4.00;;;10.90;99.90;;;;;;4972188;28;20034;-76
2023/05/19 03:35:12;;;;;;;7.78;3.80;;;11.70;99.90;;;;;;4973268;28;20443;-76
2023/05/19 03:37:38;;;;;;;8.30;4.00;;;12.10;99.90;;;;;;4972010;28;20029;-76
2023/05/19 03:40:04;;;;;;;6.85;3.90;;;12.40;99.90;;;;;;4973422;28;20492;-76
2023/05/19 03:42:30;;;;;;;10.23;4.47;;;12.60;99.90;;;;;;4988341;28;20041;-76
2023/05/19 03:44:55;;;;;;;5.60;3.28;;;12.80;99.90;;;;;;4971879;28;20039;-76
2023/05/19 03:47:21;;;;;;;8.43;4.15;;;12.70;99.90;;;;;;4971965;28;20511;-77
2023/05/19 03:49:47;;;;;;;4.85;3.40;;;12.80;99.90;;;;;;4973115;28;20553;-77
2023/05/19 03:52:13;;;;;;;13.93;3.53;;;12.90;99.90;;;;;;4973362;28;20033;-76
2023/05/19 03:54:40;;;;;;;3.97;2.90;;;12.90;99.90;;;;;;4972925;28;20391;-77
2023/05/19 03:57:06;;;;;;;6.18;3.42;;;12.90;99.90;;;;;;4972176;28;20110;-78
2023/05/19 03:59:32;;;;;;;3.33;2.75;;;12.40;99.90;;;;;;4971855;28;20113;-77
2023/05/19 04:01:57;;;;;;;7.90;3.75;;;12.10;99.90;;;;;;4971727;28;20483;-78
2023/05/19 04:04:23;;;;;;;5.13;3.13;;;11.90;99.90;;;;;;4971819;28;20027;-77
2023/05/19 04:06:49;;;;;;;10.07;3.42;;;11.80;99.90;;;;;;4973092;28;20030;-77
2023/05/19 04:09:15;;;;;;;5.03;3.28;;;11.80;99.90;;;;;;4972986;28;20399;-77
2023/05/19 04:11:41;;;;;;;4.22;3.83;;;11.70;99.90;;;;;;4973238;28;20022;-77
2023/05/19 04:14:07;;;;;;;6.75;4.07;;;11.70;99.90;;;;;;4973097;28;20435;-77
2023/05/19 04:16:33;;;;;;;8.20;4.53;;;11.60;99.90;;;;;;4971611;28;20023;-77
2023/05/19 04:18:59;;;;;;;8.93;4.65;;;11.60;99.90;;;;;;4971782;28;20021;-77
2023/05/19 04:21:26;;;;;;;8.02;4.60;;;11.50;99.90;;;;;;4971814;28;20038;-77
2023/05/19 04:23:51;;;;;;;6.95;3.92;;;11.50;99.90;;;;;;4972470;28;20054;-76
2023/05/19 04:26:20;;;;;;;5.07;3.35;;;12.60;99.90;;;;;;4972722;28;20066;-75
2023/05/19 04:28:47;;;;;;;5.30;3.72;;;13.00;99.90;;;;;;4971570;28;20101;-76
2023/05/19 04:31:13;;;;;;;7.13;3.50;;;13.20;99.90;;;;;;4972839;28;20023;-76
2023/05/19 04:33:40;;;;;;;8.68;4.47;;;13.20;99.90;;;;;;4972804;28;20031;-76
2023/05/19 04:36:09;;;;;;;5.45;4.18;;;13.60;99.90;;;;;;4972673;28;20031;-76
2023/05/19 04:38:41;;;;;;;6.03;3.45;;;13.80;99.90;;;;;;4971514;28;20547;-76
2023/05/19 04:41:09;;;;;;;7.95;4.50;;;13.70;99.90;;;;;;4972832;28;20038;-76
2023/05/19 04:43:35;;;;;;;4.40;3.08;;;13.80;99.90;;;;;;4972696;28;20015;-76
2023/05/19 04:46:05;;;;;;;7.32;4.03;;;13.90;99.90;;;;;;4971377;28;20089;-76
2023/05/19 04:48:32;;;;;;;17.38;4.60;;;13.80;99.90;;;;;;4972704;28;20030;-76
2023/05/19 04:51:00;;;;;;;7.40;3.92;;;13.80;99.90;;;;;;4971491;28;20034;-75
2023/05/19 04:53:28;;;;;;;4.40;3.70;;;14.00;99.90;;;;;;4971454;28;20069;-76
2023/05/19 04:55:59;;;;;;;7.47;3.25;;;13.80;99.90;;;;;;4970693;28;20035;-76
2023/05/19 04:58:26;;;;;;;7.13;3.20;;;13.80;99.90;;;;;;4987433;28;20031;-76
2023/05/19 05:00:54;;;;;;;5.95;3.13;;;14.00;99.90;;;;;;4971432;28;20034;-75
2023/05/19 05:03:23;;;;;;;5.00;2.95;;;13.90;99.90;;;;;;4971405;28;20034;-76
2023/05/19 05:05:49;;;;;;;5.28;3.15;;;14.00;99.90;;;;;;4971240;28;20440;-76
2023/05/19 05:08:21;;;;;;;5.85;2.67;;;14.00;99.90;;;;;;4972921;28;20116;-77
2023/05/19 05:10:53;;;;;;;4.07;3.13;;;14.00;99.90;;;;;;4972243;28;20037;-76
2023/05/19 05:13:22;;;;;;;5.75;3.25;;;14.00;99.90;;;;;;4971166;28;20031;-76
2023/05/19 05:15:48;;;;;;;7.10;3.17;;;13.80;99.90;;;;;;4972297;28;20476;-76
2023/05/19 05:18:14;;;;;;;7.05;2.50;;;13.90;99.90;;;;;;4972205;28;20041;-76
2023/05/19 05:20:42;;;;;;;2.88;2.35;;;13.80;99.90;;;;;;4978061;28;20026;-76
2023/05/19 05:23:08;;;;;;;3.83;2.83;;;13.70;99.90;;;;;;4978997;28;20030;-76
2023/05/19 05:25:35;;;;;;;4.82;2.90;;;13.70;99.90;;;;;;4977926;28;20042;-76
2023/05/19 05:28:04;;;;;;;5.80;3.45;;;14.00;99.90;;;;;;4979218;28;20034;-76
2023/05/19 05:30:30;;;;;;;8.98;3.45;;;14.10;99.90;;;;;;4978398;28;20113;-76
2023/05/19 05:32:56;;;;;;;4.88;2.92;;;13.90;99.90;;;;;;4978324;28;20065;-76
2023/05/19 05:35:23;;;;;;;6.65;2.80;;;13.90;99.90;;;;;;4979155;28;20735;-76
2023/05/19 05:37:49;;;;;;;5.82;3.67;;;14.00;99.90;;;;;;4978384;28;20023;-76
2023/05/19 05:40:14;;;;;;;4.65;2.95;;;13.90;99.90;;;;;;4975718;28;20503;-76
2023/05/19 05:42:41;;;;;;;5.25;3.00;;;13.90;99.90;;;;;;4975603;28;20022;-76
2023/05/19 05:45:07;;;;;;;4.10;2.60;;;14.20;99.90;;;;;;4975211;28;20069;-76
2023/05/19 05:47:33;;;;;;;3.42;2.50;;;14.30;99.90;;;;;;4975416;28;20344;-76
2023/05/19 05:49:59;;;;;;;5.80;2.65;;;14.60;99.90;;;;;;4975490;28;20079;-76
2023/05/19 05:52:29;;;;;;;4.53;2.03;;;14.50;99.90;;;;;;4974141;28;20511;-76
2023/05/19 05:54:56;;;;;;;6.75;2.88;;;14.50;99.90;;;;;;4973729;28;20030;-76
2023/05/19 05:57:21;;;;;;;4.03;2.60;;;14.50;99.90;;;;;;4973900;28;20031;-76
2023/05/19 05:59:47;;;;;;;4.63;2.97;;;14.40;99.90;;;;;;4975236;28;20034;-76
2023/05/19 06:02:13;;;;;;;6.50;2.90;;;14.20;99.90;;;;;;4973944;28;20031;-76
2023/05/19 06:04:39;;;;;;;5.53;3.03;;;14.20;99.90;;;;;;4975001;28;20027;-76
2023/05/19 06:07:05;;;;;;;3.13;2.55;;;14.30;99.90;;;;;;4975259;28;20106;-76
2023/05/19 06:09:31;;;;;;;8.90;3.42;;;14.40;99.90;;;;;;4975027;28;20106;-76
2023/05/19 06:11:58;;;;;;;7.35;3.15;;;14.40;99.90;;;;;;4975052;28;20495;-77
2023/05/19 06:14:24;;;;;;;5.45;2.80;;;14.60;99.90;;;;;;4970587;28;20015;-76
2023/05/19 06:16:50;;;;;;;4.88;2.85;;;14.50;99.90;;;;;;4956746;28;20123;-76
2023/05/19 06:19:17;;;;;;;7.93;3.00;;;14.60;99.90;;;;;;4954056;29;20031;-76
2023/05/19 06:21:42;;;;;;;4.53;2.00;;;14.70;99.90;;;;;;4955568;28;20051;-76
2023/05/19 06:24:08;;;;;;;3.22;2.53;;;14.70;99.90;;;;;;4954102;29;20047;-76
2023/05/19 06:26:34;;;;;;;3.38;2.97;;;14.80;99.90;;;;;;4954850;28;20041;-79
2023/05/19 06:28:59;;;;;;;4.43;2.50;;;14.60;99.90;;;;;;4954744;28;20035;-77
2023/05/19 06:31:26;;;;;;;6.38;3.20;;;14.20;99.90;;;;;;4953661;29;20221;-77
2023/05/19 06:33:52;;;;;;;7.30;5.30;;;14.00;99.90;;;;;;4955435;28;20023;-77
2023/05/19 06:36:18;;;;;;;7.30;2.88;;;13.90;99.90;;;;;;4953752;29;20741;-77
2023/05/19 06:38:44;;;;;;;4.68;2.45;;;13.80;99.90;;;;;;4953916;28;20031;-77
2023/05/19 06:41:09;;;;;;;5.05;2.47;;;13.60;99.90;;;;;;4955070;28;20023;-77
2023/05/19 06:43:35;;;;;;;3.70;2.40;;;13.60;99.90;;;;;;4953932;29;20023;-77
2023/05/19 06:46:01;;;;;;;4.40;2.70;;;13.60;99.90;;;;;;4953778;29;20118;-77
2023/05/19 06:48:26;;;;;;;2.88;2.15;;;13.60;99.90;;;;;;4955039;29;20031;-77
2023/05/19 06:50:52;;;;;;;6.32;2.78;;;13.60;99.90;;;;;;4953767;29;20423;-77
2023/05/19 06:53:19;;;;;;;4.70;2.83;;;13.60;99.90;;;;;;4953663;29;20027;-77
2023/05/19 06:55:45;;;;;;;7.63;2.90;;;13.60;99.90;;;;;;4953476;28;20140;-77
2023/05/19 06:58:10;;;;;;;5.63;2.78;;;13.80;99.90;;;;;;4954764;28;20385;-78
2023/05/19 07:00:36;;;;;;;7.97;3.33;;;14.00;99.90;;;;;;4954869;29;20027;-77
2023/05/19 07:03:02;;;;;;;3.33;3.00;;;14.10;99.90;;;;;;4953621;29;20030;-77
2023/05/19 07:05:27;;;;;;;6.53;3.80;;;14.50;99.90;;;;;;4953337;29;20033;-77
2023/05/19 07:07:53;;;;;;;8.80;3.55;;;14.60;99.90;;;;;;4954555;29;20102;-77
2023/05/19 07:10:20;;;;;;;8.60;4.30;;;14.60;99.90;;;;;;4954668;29;20110;-78
2023/05/19 07:12:46;;;;;;;7.93;3.15;;;14.90;99.80;;;;;;4953408;29;20046;-77
2023/05/19 07:15:12;;;;;;;10.32;3.35;;;15.00;98.80;;;;;;4954299;29;20031;-77
2023/05/19 07:17:37;;;;;;;6.90;3.65;;;15.30;98.80;;;;;;4954343;29;20102;-76
2023/05/19 07:20:08;;;;;;;10.63;5.18;;;15.60;98.50;;;;;;4954343;29;20023;-76
2023/05/19 07:22:35;;;;;;;7.97;4.13;;;15.60;97.50;;;;;;4954541;28;20082;-77
2023/05/19 07:25:00;;;;;;;11.25;3.40;;;15.40;97.30;;;;;;4954215;28;20522;-77
2023/05/19 07:27:26;;;;;;;6.30;3.80;;;15.50;97.30;;;;;;4952834;29;20035;-77
2023/05/19 07:29:52;;;;;;;4.85;3.20;;;15.40;97.30;;;;;;4954371;29;20106;-78
2023/05/19 07:32:17;;;;;;;9.70;3.63;;;15.40;97.70;;;;;;4953212;28;20500;-77
2023/05/19 07:34:43;;;;;;;6.50;3.17;;;15.60;97.80;;;;;;4954068;29;20027;-77
2023/05/19 07:37:09;;;;;;;5.20;3.42;;;15.60;96.70;;;;;;4953024;29;20027;-77
2023/05/19 07:39:35;;;;;;;4.40;2.70;;;15.50;97.60;;;;;;4952869;29;20489;-77
2023/05/19 07:42:01;;;;;;;10.77;4.35;;;15.60;98.00;;;;;;4952538;28;20027;-77
2023/05/19 07:44:27;;;;;;;4.57;3.15;;;15.70;97.50;;;;;;4953983;28;20027;-77
2023/05/19 07:46:53;;;;;;;5.05;2.75;;;15.70;96.80;;;;;;4954093;28;20477;-77
2023/05/19 07:49:19;;;;;;;4.25;3.20;;;15.70;95.70;;;;;;4952483;29;20027;-77
2023/05/19 07:51:45;;;;;;;4.40;2.83;;;15.90;96.40;;;;;;4954058;29;20082;-78
2023/05/19 07:54:10;;;;;;;4.00;3.03;;;16.00;95.70;;;;;;4953841;28;20019;-77
2023/05/19 07:56:36;;;;;;;5.00;2.63;;;15.80;96.70;;;;;;4952278;29;20038;-77
2023/05/19 07:59:03;;;;;;;5.65;2.67;;;15.90;96.70;;;;;;4952602;29;20035;-77
2023/05/19 08:01:29;;;;;;;10.57;4.00;;;15.70;96.10;;;;;;4952748;29;20092;-77
2023/05/19 08:03:55;;;;;;;5.32;3.50;;;15.70;97.50;;;;;;4953480;28;20038;-77
2023/05/19 08:06:21;;;;;;;3.58;2.15;;;15.70;97.30;;;;;;4953613;28;20027;-77
2023/05/19 08:08:47;;;;;;;2.42;1.92;;;15.70;97.50;;;;;;4953648;28;20034;-77
2023/05/19 08:11:12;;;;;;;3.60;2.22;;;15.80;99.90;;;;;;4953707;29;20035;-77
2023/05/19 08:13:38;;;;;;;4.95;2.88;;;15.90;98.30;;;;;;4951812;29;20027;-77
2023/05/19 08:16:04;;;;;;;2.85;2.10;;;15.80;97.70;;;;;;4952229;29;20392;-77
2023/05/19 08:18:30;;;;;;;4.53;2.28;;;15.70;97.80;;;;;;4953650;28;20499;-77
2023/05/19 08:20:56;;;;;;;4.18;3.22;;;15.80;97.90;;;;;;4953574;28;20032;-77
2023/05/19 08:23:21;;;;;;;3.72;2.35;;;15.90;99.20;;;;;;4952339;29;20039;-78
2023/05/19 08:25:47;;;;;;;4.68;2.42;;;15.80;97.80;;;;;;4952189;29;20043;-77
2023/05/19 08:28:12;;;;;;;5.28;2.60;;;15.70;98.20;;;;;;4953546;29;20031;-77
2023/05/19 08:30:38;;;;;;;5.15;2.25;;;15.60;98.90;;;;;;4953751;29;20034;-77
2023/05/19 08:33:04;;;;;;;3.58;2.63;;;15.70;99.80;;;;;;4952228;29;20042;-76
2023/05/19 08:35:29;;;;;;;4.50;2.67;;;15.80;99.40;;;;;;4953581;29;20023;-77
2023/05/19 08:37:55;;;;;;;8.05;3.08;;;16.10;99.10;;;;;;4952932;29;20020;-77
2023/05/19 08:40:22;;;;;;;4.60;2.83;;;15.90;98.20;;;;;;4953521;29;20030;-77
2023/05/19 08:42:48;;;;;;;3.92;3.05;;;16.30;98.70;;;;;;4953554;28;20424;-77
2023/05/19 08:45:14;;;;;;;6.68;2.95;;;16.50;98.10;;;;;;4952996;28;20081;-77
2023/05/19 08:47:46;;;;;;;2.63;2.08;;;16.70;98.20;;;;;;4953425;28;20031;-77
2023/05/19 08:50:20;;;;;;;3.25;2.25;;;16.90;97.40;;;;;;4952239;29;20035;-77
2023/05/19 08:52:54;;;;;;;5.63;2.20;;;17.10;96.10;;;;;;4952310;28;20110;-76
2023/05/19 08:55:57;;;;;;;4.60;2.33;;;17.20;97.10;;;;;;4956861;28;20572;-77
2023/05/19 08:58:23;;;;;;;23.55;5.03;;;17.40;96.80;;;;;;4956265;28;20115;-77
2023/05/19 09:00:50;;;;;;;6.05;2.42;;;17.50;95.80;;;;;;4956915;28;20130;-77
2023/05/19 09:03:17;;;;;;;8.48;2.17;;;17.60;93.90;;;;;;4956053;28;20110;-77
2023/05/19 09:05:43;;;;;;;2.47;1.80;;;17.60;93.10;;;;;;4955271;29;20031;-77
2023/05/19 09:08:08;;;;;;;4.28;2.22;;;17.60;94.00;;;;;;4955478;29;20023;-76
2023/05/19 09:10:34;;;;;;;2.42;2.20;;;17.50;94.20;;;;;;4955793;29;20485;-77
2023/05/19 09:13:00;;;;;;;3.78;1.90;;;17.40;93.60;;;;;;4956782;29;20559;-77
2023/05/19 09:15:27;;;;;;;6.10;2.03;;;17.20;93.60;;;;;;4955687;29;20548;-77
2023/05/19 09:18:10;;;;;;;4.15;1.98;;;16.90;95.10;;;;;;4956597;28;20031;-77
2023/05/19 09:20:40;;;;;;;5.05;2.33;;;16.90;94.90;;;;;;4955976;28;20504;-77
2023/05/19 09:23:07;;;;;;;2.28;1.95;;;16.80;94.90;;;;;;4955640;28;20041;-78
2023/05/19 09:25:33;;;;;;;5.25;1.80;;;17.10;96.00;;;;;;4954394;28;20027;-77
2023/05/19 09:27:58;;;;;;;1.80;1.70;;;17.30;95.00;;;;;;4954513;29;20079;-77
2023/05/19 09:30:24;;;;;;;3.35;2.08;;;17.30;94.30;;;;;;4954374;29;20031;-77
2023/05/19 09:32:50;;;;;;;2.08;1.88;;;17.40;95.50;;;;;;4954664;28;20082;-77
2023/05/19 09:35:18;;;;;;;2.50;1.73;;;17.30;95.10;;;;;;4956168;29;20070;-77
2023/05/19 09:37:45;;;;;;;3.67;2.13;;;17.50;95.70;;;;;;4955020;29;20027;-76
2023/05/19 09:40:13;;;;;;;1.95;1.30;;;17.70;94.70;;;;;;4956459;28;20425;-77
2023/05/19 09:42:40;;;;;;;3.03;1.38;;;17.60;94.40;;;;;;4960883;28;20023;-76
2023/05/19 09:45:08;;;;;;;2.17;1.98;;;17.70;94.30;;;;;;4974318;28;20034;-79
2023/05/19 09:47:38;;;;;;;2.10;1.83;;;17.80;94.90;;;;;;4977342;28;20026;-79
2023/05/19 09:50:10;;;;;;;3.03;1.90;;;18.00;94.70;;;;;;4976649;28;20696;-79
2023/05/19 09:52:41;;;;;;;3.70;2.20;;;17.90;94.50;;;;;;4976511;28;20030;-79
2023/05/19 09:55:11;;;;;;;4.25;2.42;;;17.80;93.80;;;;;;4977239;28;20065;-79
2023/05/19 09:57:38;;;;;;;2.33;1.85;;;17.90;93.90;;;;;;4977514;28;20388;-79
2023/05/19 10:00:16;;;;;;;3.03;1.95;;;17.80;93.90;;;;;;4976355;28;20643;-79
2023/05/19 10:02:44;;;;;;;3.17;2.05;;;17.80;94.20;;;;;;4976760;28;20085;-79
2023/05/19 10:05:15;;;;;;;2.35;1.85;;;18.00;94.20;;;;;;4975552;28;20027;-79
2023/05/19 10:07:47;;;;;;;2.42;1.75;;;18.10;94.20;;;;;;4976084;28;20031;-80
2023/05/19 10:10:14;;;;;;;3.22;1.63;;;18.00;94.50;;;;;;4974194;28;20571;-79
2023/05/19 10:12:40;;;;;;;2.20;1.55;;;18.10;94.70;;;;;;4975164;28;20094;-79
2023/05/19 10:15:11;;;;;;;1.13;1.10;;;18.10;94.00;;;;;;4975083;28;20050;-80
2023/05/19 10:17:38;;;;;;;2.15;1.60;;;18.10;94.50;;;;;;4975160;28;20050;-79
2023/05/19 10:20:09;;;;;;;2.67;2.00;;;18.10;94.10;;;;;;4975133;28;20023;-79
2023/05/19 10:22:35;;;;;;;2.92;2.05;;;18.40;94.40;;;;;;4975123;28;20050;-80
2023/05/19 10:25:01;;;;;;;6.32;1.52;;;18.50;93.60;;;;;;4975359;28;20054;-80
2023/05/19 10:27:29;;;;;;;2.70;1.60;;;18.50;93.20;;;;;;4976079;28;20443;-79
2023/05/19 10:29:57;;;;;;;2.25;2.00;;;18.60;93.60;;;;;;4976223;28;20051;-79
2023/05/19 10:32:27;;;;;;;1.83;1.42;;;18.90;93.90;;;;;;4977985;28;20034;-80
2023/05/19 10:35:08;;;;;;;2.60;1.67;;;19.20;93.00;;;;;;4975979;28;20027;-80
2023/05/19 10:37:50;;;;;;;2.58;1.63;;;19.30;92.40;;;;;;4977122;28;20031;-80
2023/05/19 10:40:37;;;;;;;4.68;1.50;;;19.40;91.90;;;;;;4977105;28;20161;-80
2023/05/19 10:43:30;;;;;;;4.00;1.38;;;19.30;92.30;;;;;;4976257;28;20030;-80
2023/05/19 10:45:56;;;;;;;2.13;1.40;;;19.30;91.80;;;;;;4977873;28;20019;-80
2023/05/19 10:48:22;;;;;;;4.85;1.20;;;19.40;91.90;;;;;;4976810;28;20366;-80
2023/05/19 10:50:52;;;;;;;2.95;1.30;;;19.10;91.40;;;;;;4984545;28;20037;-80
2023/05/19 10:53:20;;;;;;;2.03;1.30;;;19.10;91.10;;;;;;4979018;28;20023;-80
2023/05/19 10:55:50;;;;;;;1.25;1.20;;;19.10;90.70;;;;;;4983174;28;20118;-80
2023/05/19 10:58:38;;;;;;;2.58;0.90;;;19.00;90.90;;;;;;4984353;28;20519;-80
2023/05/19 11:01:17;;;;;;;1.55;1.08;;;19.10;90.70;;;;;;4984064;28;20027;-81
2023/05/19 11:03:52;;;;;;;2.55;0.70;;;19.20;91.50;;;;;;4982596;28;20027;-81
2023/05/19 11:06:32;;;;;;;1.52;1.15;;;19.40;91.00;;;;;;4982016;28;20022;-80
2023/05/19 11:09:01;;;;;;;1.02;0.80;;;19.30;89.90;;;;;;4981228;28;20035;-80
2023/05/19 11:11:44;;;;;;;3.40;0.93;;;19.10;90.10;;;;;;4978819;28;20027;-80
2023/05/19 11:14:11;;;;;;;1.23;1.13;;;19.10;90.60;;;;;;4974945;28;20062;-80
2023/05/19 11:16:40;;;;;;;1.35;1.10;;;19.30;91.50;;;;;;4975806;28;20491;-80
2023/05/19 11:19:06;;;;;;;1.30;1.10;;;19.40;90.50;;;;;;4975109;28;20037;-80
2023/05/19 11:21:47;;;;;;;1.33;0.98;;;19.60;90.00;;;;;;4974498;28;20026;-80
2023/05/19 11:24:43;;;;;;;2.03;1.10;;;19.60;90.40;;;;;;4975658;28;20019;-80
2023/05/19 11:27:33;;;;;;;6.10;0.90;;;19.60;90.20;;;;;;4976706;28;20400;-80
2023/05/19 11:30:10;;;;;;;1.00;0.90;;;19.60;90.40;;;;;;4975970;28;20535;-80
2023/05/19 11:32:40;;;;;;;0.65;0.65;;;19.50;90.10;;;;;;4975551;28;20129;-80
2023/05/19 11:35:07;;;;;;;1.85;1.25;;;19.70;89.90;;;;;;4975272;28;20031;-80
2023/05/19 11:37:33;;;;;;;1.35;0.80;;;19.80;88.80;;;;;;4975128;28;20033;-79
2023/05/19 11:40:06;;;;;;;0.60;0.60;;;20.00;90.10;;;;;;4975521;28;20442;-79
2023/05/19 11:42:33;;;;;;;1.50;0.80;;;19.90;88.60;;;;;;4974663;28;20114;-79
2023/05/19 11:44:59;;;;;;;1.92;0.90;;;20.00;89.40;;;;;;4974187;28;20026;-80
2023/05/19 11:47:26;;;;;;;1.00;0.70;;;19.80;90.50;;;;;;4977189;28;20046;-80
2023/05/19 11:49:53;;;;;;;0.68;0.65;;;19.90;90.10;;;;;;4974935;28;20022;-79
2023/05/19 11:52:23;;;;;;;1.08;0.82;;;20.00;89.40;;;;;;4974450;28;20070;-79
2023/05/19 11:54:49;;;;;;;0.75;0.75;;;20.20;89.60;;;;;;4973810;28;20034;-79
2023/05/19 11:57:15;;;;;;;2.13;0.88;;;20.30;89.20;;;;;;4975119;28;20023;-80
2023/05/19 11:59:44;;;;;;;1.33;0.77;;;20.10;90.10;;;;;;4973833;28;20027;-80
2023/05/19 12:02:23;;;;;;;0.80;0.80;;;20.20;88.60;;;;;;4973612;28;20023;-80
2023/05/19 12:04:50;;;;;;;1.15;1.02;;;20.30;88.50;;;;;;4975165;28;20027;-80
2023/05/19 12:07:21;;;;;;;1.42;0.75;;;20.50;88.80;;;;;;4974063;28;20019;-80
2023/05/19 12:09:48;;;;;;;1.65;1.10;;;20.70;88.30;;;;;;4975190;28;20098;-80
2023/05/19 12:12:18;;;;;;;1.42;1.23;;;20.70;87.10;;;;;;4973714;28;20126;-80
2023/05/19 12:14:49;;;;;;;2.10;0.93;;;20.70;85.20;;;;;;4973280;28;20023;-80
2023/05/19 12:17:16;;;;;;;1.30;0.77;;;20.80;85.80;;;;;;4974521;28;20023;-80
2023/05/19 12:19:43;;;;;;;1.02;0.80;;;20.90;84.90;;;;;;4973699;28;20019;-80
2023/05/19 12:22:09;;;;;;;1.33;0.77;;;20.70;84.60;;;;;;4975257;28;20023;-79
2023/05/19 12:24:36;;;;;;;1.63;1.08;;;20.70;84.50;;;;;;4974833;28;20027;-80
2023/05/19 12:27:09;;;;;;;1.13;0.82;;;20.80;86.40;;;;;;4974266;28;20061;-80
2023/05/19 12:29:34;;;;;;;1.10;0.90;;;20.60;85.00;;;;;;4978783;28;20029;-80
2023/05/19 12:32:00;;;;;;;1.85;1.08;;;20.30;84.40;;;;;;4979943;28;20031;-80
2023/05/19 12:34:26;;;;;;;3.17;1.02;;;20.30;85.70;;;;;;4977045;28;20035;-80
2023/05/19 12:36:51;;;;;;;2.05;0.80;;;20.30;85.80;;;;;;4976980;28;20035;-80
2023/05/19 12:39:17;;;;;;;2.35;0.88;;;20.20;86.50;;;;;;4976777;28;20046;-80
2023/05/19 12:41:44;;;;;;;2.35;1.27;;;20.10;87.10;;;;;;4978602;28;20051;-78
2023/05/19 12:44:16;;;;;;;0.93;0.77;;;20.20;85.20;;;;;;4977159;28;20026;-78
2023/05/19 12:46:43;;;;;;;2.22;1.00;;;20.20;86.30;;;;;;4977615;28;20038;-78
2023/05/19 12:49:09;;;;;;;2.17;1.23;;;20.50;85.60;;;;;;4978283;28;20055;-78
2023/05/19 12:51:35;;;;;;;2.40;1.27;;;20.40;86.70;;;;;;4977877;28;20054;-77